Terminal Aerodrome Forecast
Issued by NWS Duluth, MN

Home | Current Version | Previous Version | Text Only | Print | Product List | Glossary On
Versions: 1 2 3 4 5 6 7 8 9 10 11 12 13 14 15 16 17 18 19 20 21 22 23 24 25 26 27 28 29 30 31 32
000
FTUS43 KDLH 210440 AAE
TAFDLH
TAF AMD
KDLH 210440Z 2105/2124 27012KT P6SM OVC003
     FM210600 28010KT P6SM SCT004 OVC006
     FM210900 28007KT 3SM BR SCT004 OVC006
     FM211200 25004KT 1/2SM FG SCT002 OVC004
     FM211430 23006KT 2SM BR SCT004 OVC006
     FM211700 22007KT P6SM SCT250=

USA.gov is the U.S. government's official web portal to all federal, state and local government web resources and services.